createdAt,value
2018-05-09T00:00:04.127Z,100248.95
2018-05-09T00:02:30.196Z,100244.57
2018-05-09T00:04:56.189Z,100243.87
2018-05-09T00:07:22.166Z,100246.84
2018-05-09T00:09:48.114Z,100243.16
2018-05-09T00:12:14.081Z,100245.23
2018-05-09T00:14:40.038Z,100245.64
2018-05-09T00:17:06.002Z,100243.72
2018-05-09T00:19:31.959Z,100242.08
2018-05-09T00:21:57.945Z,100247.69
2018-05-09T00:24:23.914Z,100244.13
2018-05-09T00:26:49.887Z,100242.89
2018-05-09T00:29:15.856Z,100240.25
2018-05-09T00:31:41.856Z,100232.97
2018-05-09T00:34:07.824Z,100235.20
2018-05-09T00:36:33.811Z,100238.67
2018-05-09T00:38:59.762Z,100233.48
2018-05-09T00:41:25.755Z,100234.35
2018-05-09T00:43:51.713Z,100232.15
2018-05-09T00:46:17.690Z,100227.47
2018-05-09T00:48:43.661Z,100232.67
2018-05-09T00:51:09.652Z,100227.98
2018-05-09T00:53:35.623Z,100231.06
2018-05-09T00:56:01.682Z,100226.25
2018-05-09T00:58:27.632Z,100226.59
2018-05-09T01:00:53.610Z,100223.55
2018-05-09T01:03:19.560Z,100228.83
2018-05-09T01:05:45.536Z,100227.32
2018-05-09T01:08:11.507Z,100226.40
2018-05-09T01:10:37.484Z,100221.93
2018-05-09T01:13:03.446Z,100224.16
2018-05-09T01:15:29.417Z,100226.25
2018-05-09T01:17:55.393Z,100224.92
2018-05-09T01:20:21.361Z,100219.63
2018-05-09T01:22:47.333Z,100222.63
2018-05-09T01:25:13.316Z,100227.51
2018-05-09T01:27:39.303Z,100217.58
2018-05-09T01:30:05.269Z,100218.31
2018-05-09T01:32:31.238Z,100216.58
2018-05-09T01:34:57.203Z,100216.61
2018-05-09T01:37:23.186Z,100220.17
2018-05-09T01:39:49.129Z,100213.87
2018-05-09T01:42:15.098Z,100209.75
2018-05-09T01:44:41.054Z,100203.30
2018-05-09T01:47:07.051Z,100208.58
2018-05-09T01:49:33.023Z,100204.02
2018-05-09T01:51:58.988Z,100208.33
2018-05-09T01:54:24.944Z,100207.98
2018-05-09T01:56:50.900Z,100208.83
2018-05-09T01:59:16.849Z,100208.42
2018-05-09T02:01:42.917Z,100210.66
2018-05-09T02:04:08.891Z,100204.81
2018-05-09T02:06:34.855Z,100203.55
2018-05-09T02:09:00.859Z,100206.03
2018-05-09T02:11:26.814Z,100198.66
2018-05-09T02:13:52.810Z,100207.26
2018-05-09T02:16:18.777Z,100204.55
2018-05-09T02:18:44.749Z,100202.57
2018-05-09T02:21:10.709Z,100199.42
2018-05-09T02:23:36.664Z,100209.34
2018-05-09T02:26:02.657Z,100203.04
2018-05-09T02:28:28.603Z,100202.22
2018-05-09T02:30:54.599Z,100199.98
2018-05-09T02:33:20.577Z,100199.42
2018-05-09T02:35:46.573Z,100202.87
2018-05-09T02:38:12.591Z,100203.61
2018-05-09T02:40:38.549Z,100204.52
2018-05-09T02:43:04.492Z,100206.09
2018-05-09T02:45:30.489Z,100203.23
2018-05-09T02:47:56.446Z,100201.25
2018-05-09T02:50:22.423Z,100195.14
2018-05-09T02:52:48.368Z,100198.82
2018-05-09T02:55:14.375Z,100201.56
2018-05-09T02:57:40.322Z,100201.21
2018-05-09T03:00:06.320Z,100202.53
2018-05-09T03:02:32.272Z,100207.52
2018-05-09T03:04:58.215Z,100209.34
2018-05-09T03:07:24.259Z,100207.41
2018-05-09T03:09:50.245Z,100211.33
2018-05-09T03:12:16.223Z,100218.75
2018-05-09T03:14:42.184Z,100208.89
2018-05-09T03:17:08.164Z,100213.27
2018-05-09T03:19:34.112Z,100208.58
2018-05-09T03:22:00.133Z,100217.94
2018-05-09T03:24:26.084Z,100224.14
2018-05-09T03:26:52.056Z,100213.05
2018-05-09T03:29:18.034Z,100207.00
2018-05-09T03:31:44.001Z,100209.50
2018-05-09T03:34:09.974Z,100211.80
2018-05-09T03:36:35.957Z,100216.83
2018-05-09T03:39:01.927Z,100218.66
2018-05-09T03:41:27.869Z,100217.78
2018-05-09T03:43:53.818Z,100222.38
2018-05-09T03:46:19.785Z,100218.66
2018-05-09T03:48:45.738Z,100222.38
2018-05-09T03:51:11.721Z,100220.84
2018-05-09T03:53:37.687Z,100224.39
2018-05-09T03:56:03.684Z,100216.52
2018-05-09T03:58:29.635Z,100218.41
2018-05-09T04:00:55.652Z,100222.82
2018-05-09T04:03:21.638Z,100218.06
2018-05-09T04:05:47.594Z,100226.25
2018-05-09T04:08:13.586Z,100237.34
2018-05-09T04:10:39.537Z,100233.56
2018-05-09T04:13:05.491Z,100240.33
2018-05-09T04:15:31.453Z,100245.53
2018-05-09T04:17:57.396Z,100247.01
2018-05-09T04:20:23.346Z,100249.34
2018-05-09T04:22:49.301Z,100255.30
2018-05-09T04:25:15.265Z,100252.58
2018-05-09T04:27:41.214Z,100249.34
2018-05-09T04:30:07.208Z,100245.22
2018-05-09T04:32:33.284Z,100244.64
2018-05-09T04:34:59.257Z,100246.44
2018-05-09T04:37:25.198Z,100247.52
2018-05-09T04:39:51.148Z,100240.33
2018-05-09T04:42:17.114Z,100244.71
2018-05-09T04:44:43.082Z,100245.31
2018-05-09T04:47:09.041Z,100239.52
2018-05-09T04:49:35.017Z,100240.99
2018-05-09T04:52:01.003Z,100240.64
2018-05-09T04:54:26.979Z,100237.09
2018-05-09T04:56:52.923Z,100239.58
2018-05-09T04:59:18.891Z,100248.52
2018-05-09T05:01:44.867Z,100248.73
2018-05-09T05:04:10.856Z,100243.55
2018-05-09T05:06:36.829Z,100247.41
2018-05-09T05:09:02.803Z,100257.53
2018-05-09T05:11:28.759Z,100259.26
2018-05-09T05:13:54.729Z,100257.94
2018-05-09T05:16:20.691Z,100253.81
2018-05-09T05:18:46.649Z,100258.50
2018-05-09T05:21:12.628Z,100256.45
2018-05-09T05:23:38.596Z,100264.45
2018-05-09T05:26:04.617Z,100263.70
2018-05-09T05:28:30.586Z,100260.08
2018-05-09T05:30:56.578Z,100260.84
2018-05-09T05:33:22.536Z,100265.62
2018-05-09T05:35:48.500Z,100265.69
2018-05-09T05:38:14.460Z,100265.78
2018-05-09T05:40:41.531Z,100271.64
2018-05-09T05:43:07.490Z,100274.22
2018-05-09T05:45:33.461Z,100277.12
2018-05-09T05:47:59.465Z,100277.63
2018-05-09T05:50:25.465Z,100271.23
2018-05-09T05:52:51.448Z,100267.11
2018-05-09T05:55:17.396Z,100267.36
2018-05-09T05:57:43.380Z,100267.95
2018-05-09T06:00:09.337Z,100269.28
2018-05-09T06:02:35.336Z,100265.62
2018-05-09T06:05:01.294Z,100264.05
2018-05-09T06:07:27.280Z,100266.34
2018-05-09T06:09:53.228Z,100270.38
2018-05-09T06:12:19.206Z,100269.30
2018-05-09T06:14:45.155Z,100273.58
2018-05-09T06:17:11.149Z,100271.85
2018-05-09T06:19:37.100Z,100276.06
2018-05-09T06:22:03.049Z,100277.97
2018-05-09T06:24:29.009Z,100286.66
2018-05-09T06:26:54.975Z,100284.94
2018-05-09T06:29:20.960Z,100283.01
2018-05-09T06:31:46.974Z,100285.84
2018-05-09T06:34:12.941Z,100284.02
2018-05-09T06:36:38.912Z,100293.28
2018-05-09T06:39:04.859Z,100295.67
2018-05-09T06:41:30.839Z,100299.96
2018-05-09T06:43:56.808Z,100298.16
2018-05-09T06:46:22.794Z,100293.34
2018-05-09T06:48:48.758Z,100292.53
2018-05-09T06:51:14.724Z,100287.98
2018-05-09T06:53:40.685Z,100284.97
2018-05-09T06:56:06.679Z,100286.95
2018-05-09T06:58:32.708Z,100285.78
2018-05-09T07:00:58.756Z,100282.98
2018-05-09T07:03:25.805Z,100289.25
2018-05-09T07:05:51.825Z,100289.31
2018-05-09T07:08:17.813Z,100286.86
2018-05-09T07:10:43.895Z,100292.08
2018-05-09T07:13:09.922Z,100289.50
2018-05-09T07:15:35.941Z,100290.41
2018-05-09T07:18:01.983Z,100292.15
2018-05-09T07:20:27.965Z,100289.09
2018-05-09T07:22:53.940Z,100293.31
2018-05-09T07:25:19.960Z,100282.63
2018-05-09T07:27:45.925Z,100288.17
2018-05-09T07:30:11.947Z,100299.27
2018-05-09T07:32:37.924Z,100293.31
2018-05-09T07:35:03.883Z,100298.92
2018-05-09T07:37:29.887Z,100289.38
2018-05-09T07:39:55.830Z,100284.58
2018-05-09T07:42:21.800Z,100284.17
2018-05-09T07:44:47.902Z,100280.45
2018-05-09T07:49:46.304Z,100274.25
2018-05-09T07:52:12.284Z,100267.54
2018-05-09T07:54:38.253Z,100272.92
2018-05-09T07:57:06.246Z,100277.36
2018-05-09T07:59:32.222Z,100278.69
2018-05-09T08:01:58.167Z,100279.80
2018-05-09T08:04:24.143Z,100280.05
2018-05-09T08:06:50.103Z,100279.89
2018-05-09T08:09:16.073Z,100284.86
2018-05-09T08:11:42.117Z,100287.23
2018-05-09T08:14:08.100Z,100282.66
2018-05-09T08:16:34.072Z,100286.41
2018-05-09T08:19:00.067Z,100285.66
2018-05-09T08:21:26.034Z,100291.36
2018-05-09T08:23:52.085Z,100293.03
2018-05-09T08:26:17.988Z,100290.86
2018-05-09T08:28:43.941Z,100291.11
2018-05-09T08:31:09.930Z,100285.80
2018-05-09T08:33:35.953Z,100288.75
2018-05-09T08:36:01.954Z,100287.61
2018-05-09T08:38:27.925Z,100287.33
2018-05-09T08:40:53.893Z,100289.00
2018-05-09T08:43:19.904Z,100287.27
2018-05-09T08:45:45.885Z,100288.84
2018-05-09T08:48:11.868Z,100287.67
2018-05-09T08:50:37.826Z,100284.69
2018-05-09T08:53:03.848Z,100284.59
2018-05-09T08:55:29.848Z,100279.80
2018-05-09T08:57:55.795Z,100272.87
2018-05-09T09:00:21.870Z,100276.73
2018-05-09T09:02:47.812Z,100279.13
2018-05-09T09:05:13.790Z,100277.46
2018-05-09T09:07:39.868Z,100274.25
2018-05-09T09:10:05.845Z,100274.09
2018-05-09T09:12:31.828Z,100276.55
2018-05-09T09:14:57.795Z,100270.38
2018-05-09T09:17:23.872Z,100271.25
2018-05-09T09:19:49.840Z,100270.94
2018-05-09T09:22:15.820Z,100263.95
2018-05-09T09:24:41.790Z,100263.60
2018-05-09T09:27:07.761Z,100261.36
2018-05-09T09:29:33.817Z,100257.08
2018-05-09T09:31:59.810Z,100255.41
2018-05-09T09:34:25.766Z,100253.17
2018-05-09T09:36:51.725Z,100246.55
2018-05-09T09:39:17.687Z,100252.67
2018-05-09T09:41:43.648Z,100247.57
2018-05-09T09:44:09.617Z,100239.38
2018-05-09T09:46:39.383Z,100237.55
2018-05-09T09:49:05.377Z,100234.95
2018-05-09T09:51:31.336Z,100233.02
2018-05-09T09:53:57.367Z,100224.73
2018-05-09T09:56:23.288Z,100216.88
2018-05-09T09:58:49.257Z,100220.09
2018-05-09T10:01:15.234Z,100223.81
2018-05-09T10:03:41.199Z,100218.27
2018-05-09T10:06:07.178Z,100210.83
2018-05-09T10:08:33.146Z,100211.74
2018-05-09T10:10:59.088Z,100203.55
2018-05-09T10:13:25.048Z,100204.88
2018-05-09T10:15:51.003Z,100207.47
2018-05-09T10:18:17.068Z,100204.72
2018-05-09T10:20:44.170Z,100197.95
2018-05-09T10:23:10.341Z,100192.25
2018-05-09T10:25:36.272Z,100188.69
2018-05-09T10:28:02.248Z,100186.05
2018-05-09T10:30:28.226Z,100183.14
2018-05-09T10:32:54.197Z,100173.47
2018-05-09T10:35:20.161Z,100171.80
2018-05-09T10:37:46.127Z,100168.23
2018-05-09T10:40:12.095Z,100162.44
2018-05-09T10:42:38.077Z,100166.10
2018-05-09T10:45:04.045Z,100166.00
2018-05-09T10:47:30.038Z,100160.64
2018-05-09T10:49:55.962Z,100161.30
2018-05-09T10:52:25.275Z,100159.42
2018-05-09T10:54:51.248Z,100156.42
2018-05-09T10:57:17.311Z,100148.73
2018-05-09T10:59:43.208Z,100137.99
2018-05-09T11:02:09.187Z,100141.27
2018-05-09T11:04:35.172Z,100135.50
2018-05-09T11:07:01.145Z,100137.13
2018-05-09T11:09:27.089Z,100137.55
2018-05-09T11:11:53.044Z,100133.33
2018-05-09T11:14:19.079Z,100143.76
2018-05-09T11:16:44.975Z,100137.55
2018-05-09T11:19:10.955Z,100138.05
2018-05-09T11:21:36.921Z,100127.47
2018-05-09T11:24:02.922Z,100132.70
2018-05-09T11:26:28.912Z,100126.15
2018-05-09T11:28:54.872Z,100124.17
2018-05-09T11:31:20.821Z,100124.16
2018-05-09T11:33:46.780Z,100125.08
2018-05-09T11:36:12.767Z,100123.48
2018-05-09T11:38:38.756Z,100113.47
2018-05-09T11:41:06.650Z,100113.42
2018-05-09T11:43:32.700Z,100113.22
2018-05-09T11:45:58.661Z,100116.34
2018-05-09T11:48:24.706Z,100103.30
2018-05-09T11:50:50.667Z,100105.80
2018-05-09T11:53:16.762Z,100099.44
2018-05-09T11:55:43.679Z,100097.48
2018-05-09T11:58:09.664Z,100098.66
2018-05-09T12:00:35.621Z,100096.53
2018-05-09T12:03:01.585Z,100092.61
2018-05-09T12:05:27.548Z,100086.96
2018-05-09T12:07:53.502Z,100092.35
2018-05-09T12:10:19.590Z,100084.15
2018-05-09T12:12:45.452Z,100079.94
2018-05-09T12:17:46.423Z,100080.09
2018-05-09T12:20:12.435Z,100079.02
2018-05-09T12:22:38.401Z,100078.88
2018-05-09T12:25:04.367Z,100075.10
2018-05-09T12:27:30.396Z,100070.66
2018-05-09T12:29:56.361Z,100069.45
2018-05-09T12:32:22.378Z,100071.33
2018-05-09T12:34:48.346Z,100065.13
2018-05-09T12:37:14.297Z,100071.84
2018-05-09T12:39:40.274Z,100060.98
2018-05-09T12:42:06.242Z,100051.13
2018-05-09T12:44:32.235Z,100054.78
2018-05-09T12:46:58.198Z,100052.33
2018-05-09T12:49:24.207Z,100047.52
2018-05-09T12:51:54.424Z,100042.80
2018-05-09T12:54:20.409Z,100039.75
2018-05-09T12:56:48.422Z,100031.31
2018-05-09T12:59:14.392Z,100033.86
2018-05-09T13:01:40.357Z,100035.68
2018-05-09T13:04:06.317Z,100027.33
2018-05-09T13:06:37.671Z,100029.84
2018-05-09T13:09:03.649Z,100019.06
2018-05-09T13:11:29.630Z,100024.14
2018-05-09T13:13:55.666Z,100021.39
2018-05-09T13:16:21.623Z,100014.20
2018-05-09T13:21:18.840Z,100013.45
2018-05-09T13:23:44.793Z,100007.89
2018-05-09T13:26:14.981Z,100011.73
2018-05-09T13:28:40.972Z,99998.12
2018-05-09T13:31:06.939Z,100001.20
2018-05-09T13:33:32.890Z,99999.81
2018-05-09T13:35:58.877Z,99996.80
2018-05-09T13:38:24.841Z,99995.17
2018-05-09T13:40:50.802Z,99989.75
2018-05-09T13:43:16.784Z,99988.36
2018-05-09T13:45:42.730Z,99997.00
2018-05-09T13:48:08.677Z,99983.02
2018-05-09T13:50:34.635Z,99986.09
2018-05-09T13:55:32.678Z,99978.27
2018-05-09T13:57:58.652Z,99982.65
2018-05-09T14:00:24.637Z,99983.86
2018-05-09T14:02:54.349Z,99979.91
2018-05-09T14:05:20.311Z,99976.45
2018-05-09T14:07:46.309Z,99974.88
2018-05-09T14:10:12.415Z,99977.63
2018-05-09T14:12:38.381Z,99972.93
2018-05-09T14:15:04.330Z,99976.53
2018-05-09T14:17:30.289Z,99975.67
2018-05-09T14:19:56.297Z,99975.72
2018-05-09T14:22:22.296Z,99970.12
2018-05-09T14:24:48.264Z,99970.19
2018-05-09T14:27:14.243Z,99974.40
2018-05-09T14:29:40.190Z,99970.44
2018-05-09T14:32:06.199Z,99973.66
2018-05-09T14:34:32.132Z,99972.09
2018-05-09T14:36:58.134Z,99970.28
2018-05-09T14:39:24.087Z,99971.77
2018-05-09T14:41:50.053Z,99966.14
2018-05-09T14:44:15.996Z,99959.09
2018-05-09T14:46:42.035Z,99964.38
2018-05-09T14:49:08.021Z,99960.66
2018-05-09T14:51:33.970Z,99954.30
2018-05-09T14:53:59.932Z,99956.65
2018-05-09T14:56:25.897Z,99954.41
2018-05-09T14:58:51.885Z,99950.65
2018-05-09T15:01:17.826Z,99951.66
2018-05-09T15:03:43.796Z,99950.17
2018-05-09T15:06:09.757Z,99951.95
2018-05-09T15:08:35.822Z,99958.40
2018-05-09T15:11:01.802Z,99948.41
2018-05-09T15:13:27.765Z,99951.16
2018-05-09T15:15:53.750Z,99953.54
2018-05-09T15:18:19.694Z,99953.17
2018-05-09T15:20:45.710Z,99948.03
2018-05-09T15:23:11.705Z,99948.84
2018-05-09T15:25:37.694Z,99947.69
2018-05-09T15:28:03.641Z,99945.19
2018-05-09T15:30:29.614Z,99943.45
2018-05-09T15:32:55.678Z,99944.61
2018-05-09T15:35:21.537Z,99937.94
2018-05-09T15:37:47.541Z,99941.52
2018-05-09T15:40:13.523Z,99939.25
2018-05-09T15:42:39.489Z,99934.17
2018-05-09T15:45:05.446Z,99931.32
2018-05-09T15:47:31.424Z,99930.67
2018-05-09T15:49:57.393Z,99930.88
2018-05-09T15:52:23.362Z,99935.76
2018-05-09T15:54:49.341Z,99938.16
2018-05-09T15:57:15.299Z,99926.39
2018-05-09T15:59:41.270Z,99935.28
2018-05-09T16:02:07.235Z,99926.80
2018-05-09T16:04:33.204Z,99920.21
2018-05-09T16:06:59.151Z,99922.86
2018-05-09T16:09:25.143Z,99923.47
2018-05-09T16:11:51.094Z,99918.83
2018-05-09T16:14:17.075Z,99919.61
2018-05-09T16:16:43.054Z,99917.63
2018-05-09T16:19:09.018Z,99919.37
2018-05-09T16:21:35.011Z,99919.63
2018-05-09T16:24:00.975Z,99922.33
2018-05-09T16:26:26.948Z,99917.13
2018-05-09T16:28:52.908Z,99923.44
2018-05-09T16:31:18.956Z,99920.45
2018-05-09T16:33:44.905Z,99918.58
2018-05-09T16:36:10.981Z,99915.50
2018-05-09T16:38:36.854Z,99915.30
2018-05-09T16:41:02.824Z,99919.31
2018-05-09T16:43:28.788Z,99922.33
2018-05-09T16:45:54.880Z,99920.94
2018-05-09T16:48:20.845Z,99919.47
2018-05-09T16:50:46.800Z,99921.12
2018-05-09T16:53:12.845Z,99917.39
2018-05-09T16:55:42.328Z,99911.22
2018-05-09T16:58:08.300Z,99910.11
2018-05-09T17:00:34.301Z,99911.42
2018-05-09T17:03:00.275Z,99917.72
2018-05-09T17:05:26.320Z,99922.27
2018-05-09T17:07:52.241Z,99919.75
2018-05-09T17:10:18.209Z,99908.41
2018-05-09T17:12:44.175Z,99914.88
2018-05-09T17:15:10.155Z,99912.93
2018-05-09T17:17:36.121Z,99911.65
2018-05-09T17:20:04.164Z,99915.86
2018-05-09T17:22:30.269Z,99913.93
2018-05-09T17:24:56.249Z,99911.89
2018-05-09T17:27:22.252Z,99915.25
2018-05-09T17:29:48.217Z,99913.80
2018-05-09T17:32:14.192Z,99912.06
2018-05-09T17:34:40.228Z,99908.81
2018-05-09T17:37:06.227Z,99911.48
2018-05-09T17:39:32.200Z,99915.45
2018-05-09T17:41:58.191Z,99913.26
2018-05-09T17:44:24.169Z,99909.91
2018-05-09T17:46:50.151Z,99910.27
2018-05-09T17:49:16.132Z,99913.56
2018-05-09T17:51:42.103Z,99916.45
2018-05-09T17:54:08.203Z,99915.34
2018-05-09T17:56:34.172Z,99917.95
2018-05-09T17:59:00.263Z,99918.49
2018-05-09T18:01:26.117Z,99920.75
2018-05-09T18:03:52.288Z,99920.34
2018-05-09T18:06:18.155Z,99918.38
2018-05-09T18:08:44.125Z,99914.48
2018-05-09T18:11:10.121Z,99909.33
2018-05-09T18:13:36.090Z,99912.61
2018-05-09T18:16:02.053Z,99904.73
2018-05-09T18:18:28.058Z,99905.48
2018-05-09T18:20:59.901Z,99913.12
2018-05-09T18:23:25.870Z,99911.28
2018-05-09T18:25:51.842Z,99912.11
2018-05-09T18:28:17.809Z,99915.30
2018-05-09T18:30:43.776Z,99913.73
2018-05-09T18:33:09.821Z,99908.44
2018-05-09T18:35:39.272Z,99914.00
2018-05-09T18:38:08.676Z,99907.38
2018-05-09T18:40:34.627Z,99913.33
2018-05-09T18:43:00.615Z,99921.37
2018-05-09T18:45:26.557Z,99919.00
2018-05-09T18:47:52.528Z,99917.13
2018-05-09T18:50:18.498Z,99924.47
2018-05-09T18:52:44.460Z,99925.59
2018-05-09T18:55:10.421Z,99923.93
2018-05-09T18:57:36.373Z,99926.67
2018-05-09T19:00:02.349Z,99925.86
2018-05-09T19:02:28.303Z,99924.91
2018-05-09T19:04:54.345Z,99926.67
2018-05-09T19:07:20.315Z,99927.55
2018-05-09T19:09:46.306Z,99921.23
2018-05-09T19:12:12.272Z,99926.77
2018-05-09T19:14:38.237Z,99927.76
2018-05-09T19:17:08.005Z,99928.09
2018-05-09T19:19:33.992Z,99930.55
2018-05-09T19:21:59.999Z,99928.57
2018-05-09T19:24:25.981Z,99927.59
2018-05-09T19:26:51.966Z,99927.59
2018-05-09T19:29:17.958Z,99924.34
2018-05-09T19:31:43.919Z,99926.58
2018-05-09T19:34:09.944Z,99926.09
2018-05-09T19:36:35.893Z,99925.32
2018-05-09T19:39:01.857Z,99927.42
2018-05-09T19:41:27.940Z,99927.59
2018-05-09T19:43:53.867Z,99929.46
2018-05-09T19:46:21.895Z,99930.88
2018-05-09T19:48:47.889Z,99935.91
2018-05-09T19:51:13.902Z,99936.99
2018-05-09T19:53:39.872Z,99939.33
2018-05-09T19:56:05.857Z,99943.13
2018-05-09T19:58:31.813Z,99942.45
2018-05-09T20:00:57.789Z,99949.68
2018-05-09T20:03:23.789Z,99953.41
2018-05-09T20:05:49.759Z,99950.12
2018-05-09T20:08:15.716Z,99951.31
2018-05-09T20:10:41.697Z,99956.37
2018-05-09T20:13:07.693Z,99948.67
2018-05-09T20:15:33.666Z,99954.61
2018-05-09T20:17:59.628Z,99950.47
2018-05-09T20:20:25.590Z,99944.84
2018-05-09T20:22:51.591Z,99947.75
2018-05-09T20:25:17.584Z,99949.22
2018-05-09T20:27:44.554Z,99957.11
2018-05-09T20:30:10.521Z,99953.25
2018-05-09T20:32:36.500Z,99957.14
2018-05-09T20:35:02.488Z,99953.84
2018-05-09T20:37:28.483Z,99950.79
2018-05-09T20:39:54.454Z,99947.09
2018-05-09T20:42:20.431Z,99953.88
2018-05-09T20:44:46.378Z,99955.92
2018-05-09T20:47:12.348Z,99954.73
2018-05-09T20:49:38.335Z,99959.72
2018-05-09T20:52:04.305Z,99963.35
2018-05-09T20:54:30.271Z,99971.92
2018-05-09T20:56:56.226Z,99966.95
2018-05-09T20:59:22.182Z,99967.12
2018-05-09T21:01:48.143Z,99971.53
2018-05-09T21:04:14.155Z,99976.66
2018-05-09T21:06:40.146Z,99973.65
2018-05-09T21:09:06.145Z,99972.70
2018-05-09T21:11:32.143Z,99975.93
2018-05-09T21:13:58.109Z,99978.00
2018-05-09T21:16:24.078Z,99978.20
2018-05-09T21:18:50.037Z,99981.49
2018-05-09T21:21:15.985Z,99985.16
2018-05-09T21:23:41.928Z,99980.07
2018-05-09T21:26:07.929Z,99986.82
2018-05-09T21:28:33.865Z,99982.77
2018-05-09T21:30:59.838Z,99986.23
2018-05-09T21:33:25.870Z,99982.29
2018-05-09T21:35:52.101Z,99986.60
2018-05-09T21:38:18.085Z,99984.73
2018-05-09T21:40:44.104Z,99984.99
2018-05-09T21:43:10.011Z,99988.45
2018-05-09T21:45:35.969Z,99985.64
2018-05-09T21:48:01.944Z,99990.19
2018-05-09T21:50:27.919Z,99989.75
2018-05-09T21:52:53.877Z,99996.27
2018-05-09T21:55:19.835Z,99996.84
2018-05-09T21:57:45.790Z,99995.86
2018-05-09T22:00:11.784Z,99994.85
2018-05-09T22:02:37.745Z,99998.37
2018-05-09T22:05:03.817Z,100001.69
2018-05-09T22:07:29.776Z,99999.86
2018-05-09T22:09:55.734Z,100004.48
2018-05-09T22:12:21.677Z,99999.09
2018-05-09T22:14:47.660Z,100002.84
2018-05-09T22:17:13.605Z,100008.30
2018-05-09T22:19:39.588Z,100005.49
2018-05-09T22:22:05.556Z,100011.20
2018-05-09T22:24:31.526Z,100001.83
2018-05-09T22:26:57.517Z,100004.75
2018-05-09T22:29:23.469Z,100001.79
2018-05-09T22:31:49.466Z,100002.53
2018-05-09T22:34:15.516Z,99999.76
2018-05-09T22:36:41.504Z,100006.07
2018-05-09T22:39:07.479Z,100003.42
2018-05-09T22:41:33.456Z,99993.99
2018-05-09T22:43:59.420Z,100000.00
2018-05-09T22:46:25.403Z,99998.37
2018-05-09T22:48:51.384Z,99994.42
2018-05-09T22:51:17.360Z,99997.55
2018-05-09T22:53:43.356Z,99993.34
2018-05-09T22:56:09.328Z,99994.93
2018-05-09T22:58:35.290Z,99987.03
2018-05-09T23:01:01.278Z,99988.77
2018-05-09T23:03:27.234Z,99993.58
2018-05-09T23:05:53.225Z,99992.02
2018-05-09T23:08:19.183Z,99995.17
2018-05-09T23:10:45.147Z,99998.44
2018-05-09T23:13:11.098Z,100002.84
2018-05-09T23:15:37.077Z,99997.48
2018-05-09T23:18:03.052Z,100002.84
2018-05-09T23:20:29.019Z,100004.31
2018-05-09T23:22:54.991Z,100002.67
2018-05-09T23:25:20.948Z,100000.27
2018-05-09T23:27:46.911Z,100000.94
2018-05-09T23:30:12.877Z,100004.00
2018-05-09T23:32:38.896Z,100004.20
2018-05-09T23:35:04.867Z,100010.20
2018-05-09T23:37:30.821Z,100012.67
2018-05-09T23:39:56.854Z,100018.48
2018-05-09T23:42:22.804Z,100013.44
2018-05-09T23:44:48.808Z,100004.58
2018-05-09T23:47:14.758Z,100007.53
2018-05-09T23:49:40.717Z,100014.02
2018-05-09T23:52:06.698Z,100018.89
2018-05-09T23:54:32.752Z,100016.01
2018-05-09T23:56:58.708Z,100023.11
2018-05-09T23:59:24.669Z,100024.38
